createdAt,value
2017-06-26T00:11:57.647Z,101257.18
2017-06-26T00:32:46.346Z,101253.63
2017-06-26T00:35:28.059Z,101254.12
2017-06-26T00:38:09.410Z,101254.06
2017-06-26T00:40:51.128Z,101256.64
2017-06-26T00:43:32.558Z,101252.55
2017-06-26T00:53:28.392Z,101253.14
2017-06-26T00:56:09.744Z,101251.05
2017-06-26T00:58:51.303Z,101255.52
2017-06-26T01:12:31.790Z,101269.64
2017-06-26T01:33:19.808Z,101258.70
2017-06-26T01:36:01.237Z,101256.92
2017-06-26T01:38:42.823Z,101252.88
2017-06-26T01:41:24.343Z,101257.25
2017-06-26T01:44:05.755Z,101245.02
2017-06-26T01:54:02.101Z,101252.23
2017-06-26T01:56:43.548Z,101255.90
2017-06-26T02:13:55.765Z,101257.43
2017-06-26T02:34:44.544Z,101256.46
2017-06-26T02:37:26.133Z,101269.93
2017-06-26T02:40:07.405Z,101267.67
2017-06-26T02:42:48.909Z,101263.58
2017-06-26T02:56:22.234Z,101269.98
2017-06-26T02:59:03.750Z,101280.87
2017-06-26T03:12:53.148Z,101282.38
2017-06-26T03:33:40.706Z,101296.11
2017-06-26T03:36:22.124Z,101302.84
2017-06-26T03:39:03.563Z,101305.00
2017-06-26T03:41:45.091Z,101302.30
2017-06-26T03:55:18.632Z,101305.10
2017-06-26T03:57:59.987Z,101317.22
2017-06-26T04:11:50.715Z,101312.43
2017-06-26T04:32:38.301Z,101339.21
2017-06-26T04:35:19.592Z,101336.57
2017-06-26T04:38:00.984Z,101333.81
2017-06-26T04:40:42.585Z,101342.27
2017-06-26T04:43:24.189Z,101343.08
2017-06-26T04:53:19.791Z,101358.80
2017-06-26T04:56:01.137Z,101366.94
2017-06-26T04:58:42.663Z,101361.06
2017-06-26T05:12:26.344Z,101378.31
2017-06-26T05:33:15.384Z,101408.73
2017-06-26T05:35:57.060Z,101408.78
2017-06-26T05:38:38.512Z,101416.04
2017-06-26T05:41:19.873Z,101419.82
2017-06-26T05:44:01.503Z,101418.20
2017-06-26T05:53:58.689Z,101436.03
2017-06-26T05:56:40.718Z,101437.86
2017-06-26T05:59:22.740Z,101438.44
2017-06-26T06:12:59.194Z,101451.06
2017-06-26T06:33:47.160Z,101453.75
2017-06-26T06:36:28.768Z,101455.06
2017-06-26T06:39:10.328Z,101459.23
2017-06-26T06:41:51.731Z,101461.34
2017-06-26T06:44:33.235Z,101454.94
2017-06-26T06:54:29.005Z,101467.72
2017-06-26T06:57:10.604Z,101460.41
2017-06-26T06:59:52.044Z,101461.53
2017-06-26T07:13:32.759Z,101472.80
2017-06-26T07:34:20.404Z,101471.80
2017-06-26T07:37:02.076Z,101477.09
2017-06-26T07:39:43.684Z,101469.76
2017-06-26T07:42:24.998Z,101470.90
2017-06-26T07:55:58.281Z,101482.02
2017-06-26T07:58:39.932Z,101477.88
2017-06-26T08:12:29.020Z,101492.11
2017-06-26T08:33:17.160Z,101500.37
2017-06-26T08:35:58.624Z,101499.41
2017-06-26T08:38:39.958Z,101503.32
2017-06-26T08:41:21.392Z,101495.56
2017-06-26T08:44:03.025Z,101495.47
2017-06-26T08:53:59.467Z,101492.08
2017-06-26T08:56:41.155Z,101495.26
2017-06-26T08:59:22.683Z,101496.55
2017-06-26T09:13:02.279Z,101490.36
2017-06-26T09:33:49.894Z,101483.95
2017-06-26T09:36:31.246Z,101484.70
2017-06-26T09:39:12.918Z,101477.44
2017-06-26T09:41:54.554Z,101483.58
2017-06-26T09:44:36.005Z,101483.96
2017-06-26T09:54:32.333Z,101474.05
2017-06-26T09:57:14.001Z,101472.70
2017-06-26T09:59:55.452Z,101480.25
2017-06-26T10:13:35.762Z,101484.56
2017-06-26T10:34:24.540Z,101498.04
2017-06-26T10:37:05.926Z,101493.92
2017-06-26T10:39:47.381Z,101492.91
2017-06-26T10:42:28.991Z,101486.93
2017-06-26T10:45:10.513Z,101499.38
2017-06-26T10:55:07.786Z,101498.84
2017-06-26T10:57:49.280Z,101510.11
2017-06-26T11:15:00.161Z,101514.64
2017-06-26T11:35:48.577Z,101516.07
2017-06-26T11:38:30.004Z,101510.73
2017-06-26T11:41:11.567Z,101516.98
2017-06-26T11:43:52.909Z,101522.66
2017-06-26T11:57:26.253Z,101503.41
2017-06-26T12:00:07.743Z,101503.47
2017-06-26T12:13:54.035Z,101507.58
2017-06-26T12:34:41.643Z,101510.38
2017-06-26T12:37:23.045Z,101500.94
2017-06-26T12:40:04.289Z,101508.88
2017-06-26T12:42:46.008Z,101508.80
2017-06-26T12:45:27.642Z,101511.95
2017-06-26T12:55:23.581Z,101498.73
2017-06-26T12:58:05.088Z,101503.20
2017-06-26T13:15:16.174Z,101508.32
2017-06-26T13:36:03.518Z,101501.36
2017-06-26T13:38:44.853Z,101503.29
2017-06-26T13:41:26.453Z,101499.41
2017-06-26T13:44:08.198Z,101502.48
2017-06-26T13:57:41.525Z,101495.74
2017-06-26T14:00:23.277Z,101497.14
2017-06-26T14:14:13.465Z,101490.13
2017-06-26T14:35:01.016Z,101474.27
2017-06-26T14:37:42.557Z,101477.02
2017-06-26T14:40:23.909Z,101465.31
2017-06-26T14:43:05.396Z,101469.19
2017-06-26T14:45:46.910Z,101469.89
2017-06-26T14:55:43.235Z,101473.34
2017-06-26T14:58:24.653Z,101470.22
2017-06-26T15:11:57.995Z,101460.81
2017-06-26T15:14:26.002Z,101453.80
2017-06-26T15:16:53.970Z,101458.86
2017-06-26T15:19:21.915Z,101464.09
2017-06-26T15:21:49.850Z,101454.92
2017-06-26T15:24:17.768Z,101456.35
2017-06-26T15:26:45.699Z,101451.23
2017-06-26T17:09:28.489Z,101423.52
2017-06-26T17:11:56.434Z,101415.76
2017-06-26T17:14:24.366Z,101418.29
2017-06-26T17:16:52.449Z,101414.09
2017-06-26T17:19:20.390Z,101412.14
2017-06-26T17:21:48.307Z,101403.55
2017-06-26T17:24:16.327Z,101404.06
2017-06-26T17:26:44.276Z,101403.84
2017-06-26T17:29:12.272Z,101411.02
2017-06-26T17:31:40.212Z,101402.75
2017-06-26T17:34:08.450Z,101401.44
2017-06-26T17:36:36.403Z,101396.47
2017-06-26T17:39:04.373Z,101393.25
2017-06-26T17:41:32.365Z,101389.75
2017-06-26T17:44:00.300Z,101397.08
2017-06-26T17:46:28.297Z,101399.02
2017-06-26T17:48:56.287Z,101391.91
2017-06-26T17:51:24.231Z,101393.88
2017-06-26T17:53:52.141Z,101388.42
2017-06-26T17:56:20.200Z,101392.30
2017-06-26T17:58:48.918Z,101393.16
2017-06-26T18:01:16.874Z,101390.84
2017-06-26T18:03:44.809Z,101397.36
2017-06-26T18:06:12.775Z,101392.87
2017-06-26T18:08:40.919Z,101393.19
2017-06-26T18:11:08.867Z,101391.84
2017-06-26T18:13:36.829Z,101393.73
2017-06-26T18:16:04.761Z,101391.60
2017-06-26T18:18:32.681Z,101389.59
2017-06-26T18:21:00.601Z,101387.84
2017-06-26T18:23:28.552Z,101386.86
2017-06-26T18:25:56.485Z,101382.27
2017-06-26T18:28:24.436Z,101379.13
2017-06-26T18:30:52.394Z,101380.55
2017-06-26T18:33:20.321Z,101373.62
2017-06-26T18:35:48.246Z,101372.67
2017-06-26T18:38:16.229Z,101369.87
2017-06-26T18:40:44.230Z,101367.91
2017-06-26T18:43:12.160Z,101365.59
2017-06-26T18:45:40.084Z,101367.11
2017-06-26T18:48:08.016Z,101365.73
2017-06-26T18:50:35.949Z,101368.36
2017-06-26T18:53:03.869Z,101369.43
2017-06-26T18:55:31.901Z,101363.77
2017-06-26T18:57:59.864Z,101362.02
2017-06-26T19:00:27.790Z,101365.28
2017-06-26T19:02:55.775Z,101364.18
2017-06-26T19:05:23.715Z,101361.89
2017-06-26T19:07:51.837Z,101360.31
2017-06-26T19:10:19.769Z,101360.34
2017-06-26T19:12:47.715Z,101362.87
2017-06-26T19:15:15.674Z,101364.39
2017-06-26T19:17:43.604Z,101362.56
2017-06-26T19:20:11.520Z,101366.06
2017-06-26T19:22:39.445Z,101365.91
2017-06-26T19:25:07.421Z,101368.61
2017-06-26T19:27:35.324Z,101372.66
2017-06-26T19:30:03.266Z,101375.68
2017-06-26T19:32:31.198Z,101384.20
2017-06-26T19:34:59.136Z,101383.89
2017-06-26T19:37:27.093Z,101385.35
2017-06-26T19:39:55.049Z,101385.14
2017-06-26T19:42:23.021Z,101386.98
2017-06-26T19:44:50.946Z,101387.47
2017-06-26T19:47:18.897Z,101388.88
2017-06-26T19:49:46.882Z,101385.20
2017-06-26T19:52:14.801Z,101398.48
2017-06-26T19:54:42.729Z,101399.02
2017-06-26T19:59:33.269Z,101412.56
2017-06-26T20:02:01.853Z,101409.38
2017-06-26T20:04:29.841Z,101409.87
2017-06-26T20:06:57.830Z,101412.91
2017-06-26T20:09:25.770Z,101416.34
2017-06-26T20:11:53.766Z,101417.81
2017-06-26T20:14:21.738Z,101421.80
2017-06-26T20:16:49.718Z,101418.35
2017-06-26T20:19:17.671Z,101427.20
2017-06-26T20:21:45.627Z,101425.64
2017-06-26T20:24:13.695Z,101419.49
2017-06-26T20:26:41.653Z,101423.97
2017-06-26T20:29:09.573Z,101423.80
2017-06-26T20:31:37.497Z,101419.98
2017-06-26T20:34:05.426Z,101420.36
2017-06-26T20:36:33.351Z,101424.83
2017-06-26T20:39:01.295Z,101430.92
2017-06-26T20:41:29.261Z,101435.25
2017-06-26T20:43:57.198Z,101432.72
2017-06-26T20:46:25.149Z,101434.02
2017-06-26T20:48:53.060Z,101421.00
2017-06-26T20:51:21.014Z,101422.30
2017-06-26T20:53:48.970Z,101428.45
2017-06-26T20:56:16.969Z,101428.28
2017-06-26T20:58:44.905Z,101424.45
2017-06-26T21:01:12.887Z,101428.78
2017-06-26T21:03:40.845Z,101426.56
2017-06-26T21:06:08.803Z,101433.09
2017-06-26T21:08:36.817Z,101425.03
2017-06-26T21:11:04.798Z,101426.81
2017-06-26T21:13:32.725Z,101430.41
2017-06-26T21:16:00.712Z,101424.11
2017-06-26T21:18:28.640Z,101422.09
2017-06-26T21:20:56.617Z,101425.76
2017-06-26T21:23:24.572Z,101424.66
2017-06-26T21:25:52.506Z,101424.28
2017-06-26T21:28:20.427Z,101425.79
2017-06-26T21:30:48.553Z,101434.37
2017-06-26T21:33:16.589Z,101436.53
2017-06-26T21:35:44.626Z,101429.89
2017-06-26T21:38:12.563Z,101435.23
2017-06-26T21:40:40.590Z,101437.12
2017-06-26T21:43:08.538Z,101442.03
2017-06-26T21:45:36.482Z,101443.92
2017-06-26T21:48:04.421Z,101432.32
2017-06-26T21:50:32.336Z,101438.58
2017-06-26T21:53:00.313Z,101439.12
2017-06-26T21:55:28.242Z,101435.12
2017-06-26T21:57:56.164Z,101440.04
2017-06-26T22:00:24.086Z,101440.90
2017-06-26T22:02:52.005Z,101447.64
2017-06-26T22:05:19.945Z,101447.70
2017-06-26T22:07:48.170Z,101453.74
2017-06-26T22:10:16.100Z,101451.37
2017-06-26T22:12:44.030Z,101451.85
2017-06-26T22:15:13.838Z,101447.42
2017-06-26T22:17:41.749Z,101445.00
2017-06-26T22:20:09.680Z,101445.80
2017-06-26T22:22:37.620Z,101447.64
2017-06-26T22:25:05.542Z,101447.27
2017-06-26T22:27:33.468Z,101449.59
2017-06-26T22:30:01.392Z,101445.97
2017-06-26T22:32:29.318Z,101446.67
2017-06-26T22:34:57.617Z,101438.58
2017-06-26T22:37:25.525Z,101439.34
2017-06-26T22:39:53.472Z,101442.03
2017-06-26T22:42:21.382Z,101438.17
2017-06-26T22:44:49.312Z,101443.89
2017-06-26T22:47:17.264Z,101440.33
2017-06-26T22:49:45.205Z,101437.64
2017-06-26T22:52:13.125Z,101432.52
2017-06-26T22:54:41.045Z,101427.44
2017-06-26T22:57:08.964Z,101421.97
2017-06-26T22:59:36.938Z,101423.75
2017-06-26T23:02:04.873Z,101414.69
2017-06-26T23:04:32.819Z,101419.17
2017-06-26T23:07:00.803Z,101425.05
2017-06-26T23:09:28.768Z,101416.53
2017-06-26T23:11:56.704Z,101410.30
2017-06-26T23:14:24.642Z,101405.80
2017-06-26T23:16:52.597Z,101410.78
2017-06-26T23:19:20.541Z,101414.88
2017-06-26T23:21:48.457Z,101411.80
2017-06-26T23:24:16.368Z,101412.72
2017-06-26T23:26:44.292Z,101404.69
2017-06-26T23:29:12.248Z,101400.70
2017-06-26T23:31:40.186Z,101393.52
2017-06-26T23:34:08.141Z,101393.63
2017-06-26T23:36:36.117Z,101388.67
2017-06-26T23:39:04.048Z,101380.69
2017-06-26T23:41:31.974Z,101383.39
2017-06-26T23:43:59.883Z,101379.45
2017-06-26T23:46:27.813Z,101387.11
2017-06-26T23:48:55.773Z,101385.33
2017-06-26T23:51:23.700Z,101383.23
2017-06-26T23:53:51.668Z,101383.66
2017-06-26T23:56:19.608Z,101385.87
2017-06-26T23:58:47.531Z,101383.72
